createdAt,value
2017-07-31T00:00:27.104Z,18.60
2017-07-31T00:02:54.649Z,18.60
2017-07-31T00:05:22.225Z,18.50
2017-07-31T00:07:49.749Z,18.50
2017-07-31T00:10:18.159Z,18.40
2017-07-31T00:12:45.678Z,18.50
2017-07-31T00:15:14.005Z,18.40
2017-07-31T00:17:41.551Z,18.40
2017-07-31T00:20:09.222Z,18.40
2017-07-31T00:22:36.736Z,18.40
2017-07-31T00:25:05.055Z,18.50
2017-07-31T00:27:32.574Z,18.50
2017-07-31T00:30:00.888Z,18.40
2017-07-31T00:32:28.424Z,18.50
2017-07-31T00:34:56.011Z,18.50
2017-07-31T00:37:23.670Z,18.40
2017-07-31T00:39:51.206Z,18.40
2017-07-31T00:42:18.722Z,18.40
2017-07-31T00:44:46.286Z,18.40
2017-07-31T00:47:13.929Z,18.40
2017-07-31T00:49:41.477Z,18.40
2017-07-31T00:52:09.002Z,18.50
2017-07-31T00:54:36.598Z,18.40
2017-07-31T00:57:04.157Z,18.50
2017-07-31T00:59:31.809Z,18.40
2017-07-31T01:01:59.372Z,18.50
2017-07-31T01:04:26.889Z,18.50
2017-07-31T01:06:55.177Z,18.40
2017-07-31T01:09:22.892Z,18.40
2017-07-31T01:11:50.417Z,18.30
2017-07-31T01:14:17.937Z,18.30
2017-07-31T01:16:46.473Z,18.20
2017-07-31T01:19:13.998Z,18.20
2017-07-31T01:21:41.516Z,18.10
2017-07-31T01:24:09.053Z,18.00
2017-07-31T01:26:36.606Z,18.00
2017-07-31T01:29:04.180Z,18.00
2017-07-31T01:31:31.734Z,18.00
2017-07-31T07:38:52.994Z,21.60
2017-07-31T08:58:18.656Z,22.90
2017-07-31T09:13:11.498Z,23.50
2017-07-31T09:25:35.514Z,24.00
2017-07-31T09:40:28.451Z,25.20
2017-07-31T18:07:28.023Z,27.80
2017-07-31T18:44:40.461Z,26.90
2017-07-31T18:54:35.562Z,26.10
2017-07-31T19:14:26.264Z,25.00
2017-07-31T19:16:55.449Z,24.80
2017-07-31T19:29:19.485Z,24.50
2017-07-31T19:34:15.951Z,24.40
2017-07-31T19:39:14.954Z,24.20
2017-07-31T19:46:41.214Z,24.00
2017-07-31T19:49:10.248Z,23.90
2017-07-31T19:51:37.943Z,23.90
2017-07-31T19:56:35.964Z,23.60
2017-07-31T19:59:04.988Z,23.50
2017-07-31T20:01:34.045Z,23.40
2017-07-31T20:04:01.575Z,23.40
2017-07-31T20:08:58.009Z,23.30
2017-07-31T20:13:54.929Z,23.10
2017-07-31T20:16:22.680Z,23.10
2017-07-31T20:18:50.201Z,23.00
2017-07-31T20:21:18.481Z,22.90
2017-07-31T20:23:46.993Z,22.90
2017-07-31T20:28:44.148Z,22.80
2017-07-31T20:31:12.451Z,22.70
2017-07-31T20:33:40.745Z,22.70
2017-07-31T20:36:08.256Z,22.70
2017-07-31T20:38:37.055Z,22.50
2017-07-31T20:41:04.643Z,22.60
2017-07-31T20:43:32.165Z,22.50
2017-07-31T20:45:59.712Z,22.50
2017-07-31T20:50:57.709Z,22.40
2017-07-31T20:53:25.286Z,22.40
2017-07-31T20:55:52.814Z,22.40
2017-07-31T20:58:22.037Z,22.30
2017-07-31T21:00:49.597Z,22.30
2017-07-31T21:03:17.165Z,22.30
2017-07-31T21:05:44.715Z,22.20
2017-07-31T21:08:13.195Z,22.00
2017-07-31T21:10:40.717Z,22.00
2017-07-31T21:13:09.009Z,21.90
2017-07-31T21:15:36.555Z,21.80
2017-07-31T21:18:04.877Z,21.70
2017-07-31T21:20:32.397Z,21.70
2017-07-31T21:23:00.797Z,21.60
2017-07-31T21:25:28.319Z,21.60
2017-07-31T21:27:56.646Z,21.50
2017-07-31T21:30:24.196Z,21.50
2017-07-31T21:32:53.228Z,21.40
2017-07-31T21:35:22.254Z,21.30
2017-07-31T21:37:50.570Z,21.30
2017-07-31T21:40:18.088Z,21.30
2017-07-31T21:45:16.098Z,21.10
2017-07-31T21:47:44.590Z,21.10
2017-07-31T21:50:12.108Z,21.10
2017-07-31T21:52:41.154Z,21.00
2017-07-31T21:55:08.677Z,20.90
2017-07-31T21:57:36.264Z,20.90
2017-07-31T22:00:04.578Z,20.90
2017-07-31T22:02:32.878Z,20.80
2017-07-31T22:05:01.169Z,20.70
2017-07-31T22:07:28.762Z,20.70
2017-07-31T22:09:56.297Z,20.70
2017-07-31T22:12:23.821Z,20.70
2017-07-31T22:14:51.365Z,20.60
2017-07-31T22:17:33.761Z,20.60
2017-07-31T22:20:01.298Z,20.50
2017-07-31T22:22:29.073Z,20.50
2017-07-31T22:24:56.619Z,20.50
2017-07-31T22:27:24.179Z,20.40
2017-07-31T22:29:51.773Z,20.40
2017-07-31T22:32:19.293Z,20.40
2017-07-31T22:34:46.838Z,20.40
2017-07-31T22:37:14.365Z,20.40
2017-07-31T22:39:41.880Z,20.40
2017-07-31T22:42:09.412Z,20.30
2017-07-31T22:44:36.932Z,20.30
2017-07-31T22:47:04.656Z,20.30
2017-07-31T22:49:32.318Z,20.20
2017-07-31T22:51:59.878Z,20.20
2017-07-31T22:54:27.398Z,20.20
2017-07-31T22:56:55.710Z,20.10
2017-07-31T22:59:23.376Z,20.10
2017-07-31T23:01:50.945Z,20.10
2017-07-31T23:04:18.529Z,20.10
2017-07-31T23:06:46.046Z,20.00
2017-07-31T23:09:13.716Z,20.00
2017-07-31T23:11:41.281Z,20.00
2017-07-31T23:14:08.801Z,19.90
2017-07-31T23:16:37.114Z,19.90
2017-07-31T23:19:04.671Z,19.90
2017-07-31T23:21:32.237Z,19.90
2017-07-31T23:23:59.793Z,19.90
2017-07-31T23:26:27.451Z,19.90
2017-07-31T23:28:55.013Z,19.80
2017-07-31T23:31:22.537Z,19.80
2017-07-31T23:33:50.843Z,19.70
2017-07-31T23:38:47.406Z,19.70
2017-07-31T23:41:14.956Z,19.70
2017-07-31T23:43:42.477Z,19.70
2017-07-31T23:46:10.798Z,19.60
2017-07-31T23:48:38.356Z,19.60
2017-07-31T23:51:05.874Z,19.60
2017-07-31T23:53:34.295Z,19.60
2017-07-31T23:56:01.830Z,19.60
2017-07-31T23:58:29.413Z,19.60
